Time;durP1;ratioP1;P1;durP2;ratioP2;P2;SDS_P1;SDS_P2;PMS_P1;PMS_P2;Temp;Humidity;BMP_temperature;BMP_pressure;BME280_temperature;BME280_humidity;BME280_pressure;Samples;Min_cycle;Max_cycle;Signal;HPM_P1;HPM_P2
2023/03/21 00:00:24;;;;;;;9.27;3.05;;;9.70;99.90;;;;;;7278774;32;20088;-56
2023/03/21 00:04:26;;;;;;;8.65;2.97;;;9.70;99.90;;;;;;7275909;32;20469;-56
2023/03/21 00:08:39;;;;;;;10.07;3.65;;;9.80;99.90;;;;;;7278502;32;20214;-56
2023/03/21 00:12:41;;;;;;;10.00;3.58;;;9.90;99.90;;;;;;7281086;32;20828;-56
2023/03/21 00:16:44;;;;;;;9.93;3.47;;;9.90;99.90;;;;;;7284485;32;20555;-56
2023/03/21 00:20:59;;;;;;;15.80;3.83;;;9.90;99.90;;;;;;7282166;32;20123;-57
2023/03/21 00:25:20;;;;;;;11.68;3.83;;;9.90;99.90;;;;;;7288582;32;20131;-55
2023/03/21 00:29:22;;;;;;;10.73;3.50;;;9.90;99.90;;;;;;7288716;32;20088;-56
2023/03/21 00:33:24;;;;;;;8.40;3.67;;;9.90;99.90;;;;;;7282082;32;20611;-56
2023/03/21 00:37:27;;;;;;;16.15;4.05;;;9.90;99.90;;;;;;7270401;32;20600;-56
2023/03/21 00:41:29;;;;;;;10.25;3.53;;;9.80;99.90;;;;;;7282598;32;20288;-56
2023/03/21 00:45:46;;;;;;;12.85;3.90;;;9.80;99.90;;;;;;7280423;32;20146;-55
2023/03/21 00:49:48;;;;;;;9.82;3.78;;;10.00;99.90;;;;;;7277286;32;20321;-55
2023/03/21 00:53:50;;;;;;;9.40;3.58;;;9.90;99.90;;;;;;7281964;32;20104;-56
2023/03/21 00:57:52;;;;;;;13.45;4.15;;;9.80;99.90;;;;;;7281733;32;20158;-55
2023/03/21 01:02:06;;;;;;;14.73;4.30;;;9.90;99.90;;;;;;7282244;32;20134;-56
2023/03/21 01:06:12;;;;;;;8.35;3.53;;;9.90;99.90;;;;;;7284865;32;20187;-56
2023/03/21 01:10:14;;;;;;;13.77;4.70;;;9.90;99.90;;;;;;7282429;32;20100;-55
2023/03/21 01:14:18;;;;;;;12.13;4.20;;;9.80;99.90;;;;;;7285890;32;20251;-56
2023/03/21 01:18:27;;;;;;;15.05;4.72;;;9.80;99.90;;;;;;7290779;32;20144;-56
2023/03/21 01:22:28;;;;;;;13.00;4.70;;;9.80;99.90;;;;;;7286674;32;20290;-56
2023/03/21 01:26:31;;;;;;;13.82;5.00;;;9.90;99.90;;;;;;7287305;32;20145;-56
2023/03/21 01:30:33;;;;;;;16.05;4.90;;;9.80;99.90;;;;;;7288367;32;20096;-56
2023/03/21 01:34:42;;;;;;;11.88;4.80;;;9.90;99.90;;;;;;7285780;32;20104;-56
2023/03/21 01:38:44;;;;;;;11.30;4.87;;;9.90;99.90;;;;;;7276172;32;20116;-56
2023/03/21 01:42:46;;;;;;;14.30;5.20;;;10.00;99.90;;;;;;7284101;32;20759;-56
2023/03/21 01:46:51;;;;;;;15.05;5.47;;;10.00;99.90;;;;;;7283473;32;20206;-56
2023/03/21 01:51:12;;;;;;;15.45;5.43;;;9.90;99.90;;;;;;7286083;32;20212;-56
2023/03/21 01:55:15;;;;;;;17.12;5.87;;;9.90;99.90;;;;;;7284442;32;20145;-56
2023/03/21 01:59:27;;;;;;;11.52;5.53;;;9.90;99.90;;;;;;7284939;32;20097;-56
2023/03/21 02:03:36;;;;;;;12.60;5.82;;;9.90;99.90;;;;;;7289142;32;20248;-56
2023/03/21 02:07:40;;;;;;;15.80;6.60;;;9.80;99.90;;;;;;7277230;32;20686;-55
2023/03/21 02:11:45;;;;;;;17.95;6.18;;;10.00;99.90;;;;;;7281734;32;20183;-56
2023/03/21 02:15:58;;;;;;;19.25;6.15;;;9.80;99.90;;;;;;7283789;32;20242;-56
2023/03/21 02:20:58;;;;;;;13.32;5.82;;;9.90;99.90;;;;;;7277243;32;20104;-56
2023/03/21 02:25:50;;;;;;;18.87;6.10;;;10.00;99.90;;;;;;7157396;32;20151;-56
2023/03/21 02:30:14;;;;;;;15.02;6.40;;;9.90;99.90;;;;;;7228243;32;20177;-56
2023/03/21 02:34:54;;;;;;;21.48;7.40;;;9.90;99.90;;;;;;7277477;32;20275;-56
2023/03/21 02:39:22;;;;;;;17.48;6.50;;;9.90;99.90;;;;;;7276575;32;20104;-56
2023/03/21 02:43:52;;;;;;;10.63;6.05;;;9.90;99.90;;;;;;7280426;32;20446;-56
2023/03/21 02:48:03;;;;;;;17.58;7.07;;;9.70;99.90;;;;;;7239199;32;20134;-56
2023/03/21 02:52:08;;;;;;;14.77;6.57;;;9.60;99.90;;;;;;7275011;32;20112;-56
2023/03/21 02:56:24;;;;;;;12.82;5.75;;;9.60;99.90;;;;;;7274450;32;20499;-56
2023/03/21 03:00:31;;;;;;;15.25;6.50;;;9.60;99.90;;;;;;7272527;32;20730;-56
2023/03/21 03:04:32;;;;;;;12.50;6.00;;;9.60;99.90;;;;;;7272944;32;20112;-56
2023/03/21 03:08:52;;;;;;;13.60;6.25;;;9.70;99.90;;;;;;7289093;32;20159;-56
2023/03/21 03:13:31;;;;;;;12.98;6.00;;;9.70;99.90;;;;;;7290374;32;20130;-56
2023/03/21 03:17:54;;;;;;;18.80;6.40;;;9.70;99.90;;;;;;7278373;32;20190;-56
2023/03/21 03:22:01;;;;;;;13.32;6.05;;;9.60;99.90;;;;;;7287021;32;20179;-56
2023/03/21 03:26:07;;;;;;;14.02;6.00;;;9.60;99.90;;;;;;7286704;32;20152;-56
2023/03/21 03:30:10;;;;;;;12.95;6.25;;;9.70;99.90;;;;;;7274749;32;20565;-56
2023/03/21 03:34:16;;;;;;;16.05;6.28;;;9.70;99.90;;;;;;7284401;32;20133;-56
2023/03/21 03:38:20;;;;;;;12.73;6.47;;;9.50;99.90;;;;;;7283519;32;20704;-56
2023/03/21 03:42:34;;;;;;;15.43;6.35;;;9.40;99.90;;;;;;7283977;32;20262;-56
2023/03/21 03:46:48;;;;;;;14.75;6.10;;;9.30;99.90;;;;;;7284664;32;20553;-56
2023/03/21 03:50:52;;;;;;;13.90;5.57;;;9.10;99.90;;;;;;7280068;32;20568;-56
2023/03/21 03:54:54;;;;;;;19.92;6.15;;;9.00;99.90;;;;;;7284981;32;20650;-56
2023/03/21 03:58:56;;;;;;;12.00;5.20;;;9.00;99.90;;;;;;7285778;32;20111;-56
2023/03/21 04:02:58;;;;;;;11.98;5.43;;;8.90;99.90;;;;;;7284063;32;20281;-56
2023/03/21 04:07:02;;;;;;;11.48;5.18;;;9.00;99.90;;;;;;7280548;32;20108;-56
2023/03/21 04:11:04;;;;;;;12.82;5.25;;;9.00;99.90;;;;;;7278969;32;20183;-56
2023/03/21 04:15:07;;;;;;;16.05;5.90;;;9.10;99.90;;;;;;7275728;32;20427;-56
2023/03/21 04:19:12;;;;;;;15.77;6.12;;;9.10;99.90;;;;;;7274584;32;20112;-56
2023/03/21 04:23:13;;;;;;;14.02;5.25;;;9.10;99.90;;;;;;7273442;32;20344;-56
2023/03/21 04:27:15;;;;;;;16.42;5.53;;;9.10;99.90;;;;;;7276563;32;20104;-56
2023/03/21 04:31:17;;;;;;;13.02;5.32;;;9.10;99.90;;;;;;7272411;32;20227;-56
2023/03/21 04:35:27;;;;;;;10.95;4.90;;;9.10;99.90;;;;;;7273657;32;20103;-56
2023/03/21 04:39:29;;;;;;;12.25;5.68;;;9.10;99.90;;;;;;7273036;32;20207;-55
2023/03/21 04:43:31;;;;;;;12.05;5.37;;;9.10;99.90;;;;;;7271921;32;20108;-56
2023/03/21 04:47:32;;;;;;;12.27;5.75;;;9.20;99.90;;;;;;7271236;32;20714;-54
2023/03/21 04:51:35;;;;;;;11.73;5.55;;;9.40;99.90;;;;;;7280391;32;20108;-54
2023/03/21 04:55:37;;;;;;;12.15;5.03;;;9.40;99.90;;;;;;7277352;32;20107;-55
2023/03/21 04:59:39;;;;;;;15.90;5.57;;;9.50;99.90;;;;;;7278883;32;20520;-55
2023/03/21 05:03:41;;;;;;;12.70;5.90;;;9.50;99.90;;;;;;7284734;32;20522;-55
2023/03/21 05:07:43;;;;;;;13.98;6.35;;;9.50;99.90;;;;;;7284414;32;20522;-55
2023/03/21 05:11:44;;;;;;;13.77;5.82;;;9.50;99.90;;;;;;7285004;32;20112;-54
2023/03/21 05:15:46;;;;;;;10.93;6.18;;;9.30;99.90;;;;;;7290890;32;20147;-55
2023/03/21 05:19:49;;;;;;;9.43;5.18;;;9.30;99.90;;;;;;7287957;32;20210;-55
2023/03/21 05:23:53;;;;;;;13.82;6.00;;;9.20;99.90;;;;;;7282526;32;20116;-55
2023/03/21 05:27:54;;;;;;;14.82;5.68;;;9.20;99.90;;;;;;7285630;32;20193;-55
2023/03/21 05:31:57;;;;;;;12.40;6.37;;;9.30;99.90;;;;;;7288282;32;20482;-54
2023/03/21 05:35:59;;;;;;;11.60;6.10;;;9.30;99.90;;;;;;7284008;32;20207;-54
2023/03/21 05:40:03;;;;;;;11.82;5.70;;;9.20;99.90;;;;;;7287942;32;20266;-55
2023/03/21 05:44:05;;;;;;;15.40;6.10;;;9.20;99.90;;;;;;7289648;32;20108;-54
2023/03/21 05:48:06;;;;;;;11.63;5.37;;;9.20;99.90;;;;;;7287680;32;20549;-56
2023/03/21 05:52:09;;;;;;;13.43;5.45;;;9.20;99.90;;;;;;7280736;32;20153;-56
2023/03/21 05:56:10;;;;;;;14.52;5.55;;;9.20;99.90;;;;;;7286591;32;20550;-57
2023/03/21 06:00:13;;;;;;;11.90;5.32;;;9.20;99.90;;;;;;7280328;32;20214;-56
2023/03/21 06:04:15;;;;;;;15.30;5.68;;;9.20;99.90;;;;;;7280033;32;20151;-56
2023/03/21 06:08:18;;;;;;;10.40;5.35;;;9.20;99.90;;;;;;7276092;32;20116;-56
2023/03/21 06:12:19;;;;;;;12.40;5.45;;;9.20;99.90;;;;;;7271266;32;20254;-56
2023/03/21 06:16:21;;;;;;;13.27;5.57;;;9.10;99.90;;;;;;7274003;32;20146;-56
2023/03/21 06:20:23;;;;;;;11.98;5.18;;;9.20;99.90;;;;;;7278939;32;20235;-56
2023/03/21 06:24:26;;;;;;;11.85;5.47;;;9.20;99.90;;;;;;7280759;32;20202;-56
2023/03/21 06:28:27;;;;;;;18.30;6.28;;;9.20;99.90;;;;;;7277359;32;20132;-57
2023/03/21 06:32:29;;;;;;;12.85;5.40;;;9.10;99.90;;;;;;7269633;32;20223;-56
2023/03/21 06:36:31;;;;;;;12.07;4.72;;;9.20;99.90;;;;;;7271466;32;20225;-57
2023/03/21 06:40:33;;;;;;;12.93;5.30;;;9.20;99.90;;;;;;7275238;32;20212;-56
2023/03/21 06:44:34;;;;;;;14.93;5.40;;;9.20;99.90;;;;;;7275569;32;20930;-57
2023/03/21 06:48:38;;;;;;;10.73;5.12;;;9.20;99.90;;;;;;7279565;32;20693;-55
2023/03/21 06:52:39;;;;;;;13.93;6.03;;;9.40;99.90;;;;;;7274567;32;20588;-56
2023/03/21 06:56:41;;;;;;;15.75;5.40;;;9.50;99.90;;;;;;7284888;32;20280;-57
2023/03/21 07:00:43;;;;;;;9.98;5.65;;;9.50;99.90;;;;;;7277399;32;20111;-56
2023/03/21 07:04:45;;;;;;;9.98;5.32;;;9.50;99.90;;;;;;7280569;32;20107;-57
2023/03/21 07:08:47;;;;;;;12.07;5.35;;;9.50;99.90;;;;;;7275667;32;20138;-56
2023/03/21 07:12:48;;;;;;;14.15;5.15;;;9.50;99.90;;;;;;7281782;32;20120;-56
2023/03/21 07:16:50;;;;;;;13.60;5.93;;;9.60;99.90;;;;;;7276236;32;20226;-56
2023/03/21 07:20:52;;;;;;;16.62;5.68;;;9.60;99.90;;;;;;7275777;32;20216;-57
2023/03/21 07:24:54;;;;;;;14.50;5.90;;;9.70;99.90;;;;;;7278443;32;20187;-57
2023/03/21 07:29:05;;;;;;;18.02;6.35;;;9.70;99.90;;;;;;7275452;32;20487;-56
2023/03/21 07:33:07;;;;;;;14.57;6.05;;;9.80;99.90;;;;;;7273328;32;20108;-56
2023/03/21 07:37:09;;;;;;;15.07;6.18;;;9.90;99.90;;;;;;7274329;32;20964;-57
2023/03/21 07:41:12;;;;;;;14.80;6.43;;;9.90;99.90;;;;;;7275470;32;20159;-57
2023/03/21 07:45:20;;;;;;;13.23;5.70;;;10.00;99.90;;;;;;7273962;32;20318;-56
2023/03/21 07:49:22;;;;;;;14.45;5.85;;;9.90;99.90;;;;;;7278137;32;20171;-56
2023/03/21 07:53:24;;;;;;;16.00;5.65;;;10.00;99.90;;;;;;7278029;32;20206;-55
2023/03/21 07:57:25;;;;;;;11.20;5.50;;;10.20;99.90;;;;;;7272497;32;20109;-57
2023/03/21 08:01:27;;;;;;;14.13;6.18;;;10.30;99.90;;;;;;7277440;32;20236;-56
2023/03/21 08:05:33;;;;;;;12.90;5.87;;;10.40;99.90;;;;;;7275807;32;20209;-56
2023/03/21 08:09:36;;;;;;;12.60;6.80;;;10.40;99.90;;;;;;7273841;32;20134;-56
2023/03/21 08:13:38;;;;;;;13.90;5.55;;;10.30;99.90;;;;;;7276170;32;20127;-63
2023/03/21 08:17:44;;;;;;;13.93;6.80;;;10.30;99.90;;;;;;7277892;32;20236;-64
2023/03/21 08:21:48;;;;;;;16.70;6.22;;;10.30;99.90;;;;;;7271993;32;20250;-55
2023/03/21 08:25:53;;;;;;;14.73;6.80;;;10.40;99.90;;;;;;7271777;32;20277;-56
2023/03/21 08:29:55;;;;;;;18.10;7.62;;;10.20;99.90;;;;;;7282510;32;20793;-56
2023/03/21 08:33:57;;;;;;;18.98;8.30;;;10.10;99.90;;;;;;7277389;32;20142;-56
2023/03/21 08:38:01;;;;;;;13.82;7.40;;;10.20;99.90;;;;;;7272060;32;20112;-55
2023/03/21 08:42:04;;;;;;;19.85;6.97;;;10.10;99.90;;;;;;7284450;32;20138;-56
2023/03/21 08:46:06;;;;;;;14.65;7.35;;;10.20;99.90;;;;;;7275558;32;20250;-56
2023/03/21 08:50:10;;;;;;;14.70;7.82;;;10.20;99.90;;;;;;7282711;32;20294;-56
2023/03/21 08:54:20;;;;;;;15.82;7.85;;;10.10;99.90;;;;;;7284692;32;20745;-56
2023/03/21 08:58:22;;;;;;;12.23;7.03;;;10.20;99.90;;;;;;7280940;32;20130;-56
2023/03/21 09:02:23;;;;;;;13.05;8.00;;;10.30;99.90;;;;;;7273422;32;20608;-56
2023/03/21 09:06:26;;;;;;;14.57;7.28;;;10.40;99.90;;;;;;7286393;32;20113;-56
2023/03/21 09:10:29;;;;;;;17.48;7.65;;;10.50;99.90;;;;;;7283000;32;20146;-56
2023/03/21 09:14:32;;;;;;;15.32;7.80;;;10.40;99.90;;;;;;7285566;32;20194;-56
2023/03/21 09:18:49;;;;;;;16.20;8.48;;;10.50;99.90;;;;;;7286647;32;20200;-56
2023/03/21 09:22:51;;;;;;;14.07;7.90;;;10.60;99.90;;;;;;7281942;32;20203;-55
2023/03/21 09:26:53;;;;;;;15.60;8.48;;;10.50;99.90;;;;;;7288405;32;20159;-56
2023/03/21 09:30:57;;;;;;;19.40;8.65;;;10.70;99.90;;;;;;7290868;32;20115;-55
2023/03/21 09:34:59;;;;;;;17.10;7.78;;;10.70;99.90;;;;;;7291105;32;20235;-56
2023/03/21 09:39:03;;;;;;;19.48;8.00;;;10.60;99.90;;;;;;7288171;32;20445;-56
2023/03/21 09:43:17;;;;;;;17.98;7.70;;;10.60;99.90;;;;;;7281788;32;20112;-56
2023/03/21 09:47:27;;;;;;;12.07;6.95;;;10.60;99.90;;;;;;7285130;32;20232;-56
2023/03/21 09:51:35;;;;;;;16.23;7.85;;;10.80;99.90;;;;;;7287404;32;20159;-56
2023/03/21 09:55:39;;;;;;;17.23;7.05;;;10.90;99.90;;;;;;7283483;32;20186;-55
2023/03/21 09:59:42;;;;;;;17.23;7.80;;;11.00;99.90;;;;;;7287535;32;20553;-56
2023/03/21 10:03:44;;;;;;;14.80;7.50;;;10.70;99.90;;;;;;7288145;32;20335;-56
2023/03/21 10:07:56;;;;;;;16.50;7.78;;;10.80;99.90;;;;;;7282416;32;20123;-56
2023/03/21 10:12:02;;;;;;;15.40;7.45;;;10.80;99.90;;;;;;7282561;32;20104;-56
2023/03/21 10:16:18;;;;;;;15.45;7.53;;;10.90;99.90;;;;;;7287261;32;20112;-56
2023/03/21 10:20:28;;;;;;;16.42;7.10;;;11.00;99.90;;;;;;7284591;32;20238;-56
2023/03/21 10:24:33;;;;;;;16.00;7.35;;;11.00;99.90;;;;;;7283699;32;20124;-56
2023/03/21 10:28:40;;;;;;;12.73;7.30;;;11.00;99.90;;;;;;7282268;32;20151;-56
2023/03/21 10:32:58;;;;;;;15.85;6.82;;;10.90;99.90;;;;;;7284593;32;20219;-56
2023/03/21 10:37:02;;;;;;;14.18;7.47;;;11.00;99.90;;;;;;7286686;32;20238;-56
2023/03/21 10:41:04;;;;;;;14.77;8.48;;;10.90;99.90;;;;;;7283300;32;20135;-56
2023/03/21 10:45:15;;;;;;;15.57;7.53;;;11.00;99.90;;;;;;7286479;32;20549;-56
2023/03/21 10:49:17;;;;;;;15.00;6.50;;;11.10;99.90;;;;;;7285003;32;20195;-57
2023/03/21 10:53:30;;;;;;;11.25;6.15;;;11.10;99.90;;;;;;7289724;32;20176;-56
2023/03/21 10:57:33;;;;;;;14.25;6.18;;;11.40;99.90;;;;;;7281071;32;20239;-56
2023/03/21 11:01:40;;;;;;;12.18;6.10;;;11.50;99.90;;;;;;7282284;32;20111;-56
2023/03/21 11:05:42;;;;;;;10.25;5.07;;;11.60;99.90;;;;;;7277843;32;20616;-57
2023/03/21 11:09:49;;;;;;;10.00;5.60;;;11.50;99.90;;;;;;7274444;32;20104;-56
2023/03/21 11:14:00;;;;;;;9.52;5.12;;;11.70;99.90;;;;;;7279034;32;20268;-56
2023/03/21 11:18:18;;;;;;;10.70;5.95;;;11.90;99.90;;;;;;7276075;32;20203;-56
2023/03/21 11:22:22;;;;;;;10.70;5.50;;;12.10;99.90;;;;;;7278669;32;20164;-56
2023/03/21 11:26:31;;;;;;;12.75;5.28;;;11.90;99.90;;;;;;7270577;32;20131;-56
2023/03/21 11:30:34;;;;;;;7.80;4.57;;;12.00;99.90;;;;;;7277444;32;20209;-56
2023/03/21 11:34:58;;;;;;;10.23;4.18;;;12.00;99.90;;;;;;7272570;32;20170;-56
2023/03/21 11:39:27;;;;;;;8.68;4.60;;;12.20;99.90;;;;;;7280136;32;20110;-57
2023/03/21 11:43:33;;;;;;;13.73;4.80;;;12.40;99.90;;;;;;7272929;32;20112;-56
2023/03/21 11:47:35;;;;;;;10.47;4.67;;;12.70;99.90;;;;;;7274339;32;20596;-56
2023/03/21 11:52:00;;;;;;;10.30;4.82;;;12.80;99.90;;;;;;7278924;32;20305;-56
2023/03/21 11:56:14;;;;;;;7.75;4.45;;;12.20;99.90;;;;;;7274658;32;20116;-59
2023/03/21 12:00:31;;;;;;;7.10;4.03;;;12.10;99.90;;;;;;7282556;32;20134;-60
2023/03/21 12:04:45;;;;;;;10.00;4.35;;;11.90;99.90;;;;;;7276276;32;20405;-60
2023/03/21 12:09:10;;;;;;;11.57;4.47;;;12.00;99.90;;;;;;7273368;32;20174;-56
2023/03/21 12:13:24;;;;;;;7.62;4.47;;;11.80;99.90;;;;;;7274263;32;20113;-56
2023/03/21 12:17:53;;;;;;;11.73;4.28;;;11.80;99.90;;;;;;7279669;32;20181;-56
2023/03/21 12:22:20;;;;;;;9.27;4.75;;;11.60;99.90;;;;;;7284924;32;20176;-56
2023/03/21 12:26:26;;;;;;;11.77;4.45;;;11.60;99.90;;;;;;7282192;32;20195;-56
2023/03/21 12:30:41;;;;;;;8.30;4.20;;;11.50;99.90;;;;;;7287632;32;20242;-56
2023/03/21 12:35:11;;;;;;;10.63;5.05;;;11.40;99.90;;;;;;7281882;32;20250;-56
2023/03/21 12:39:25;;;;;;;10.25;4.80;;;11.30;99.90;;;;;;7275584;32;20489;-56
2023/03/21 12:43:46;;;;;;;10.88;4.82;;;11.20;99.90;;;;;;7279063;32;20948;-56
2023/03/21 12:47:54;;;;;;;10.60;4.55;;;11.40;99.90;;;;;;7287768;32;20218;-56
2023/03/21 12:52:13;;;;;;;9.73;4.60;;;11.60;99.90;;;;;;7282306;32;20609;-56
2023/03/21 12:56:26;;;;;;;7.55;4.07;;;11.70;99.90;;;;;;7281486;32;20188;-56
2023/03/21 13:00:40;;;;;;;8.00;4.00;;;11.90;99.90;;;;;;7283840;32;20112;-56
2023/03/21 13:04:53;;;;;;;10.77;4.28;;;12.00;99.90;;;;;;7284047;32;20175;-56
2023/03/21 13:09:16;;;;;;;9.43;4.35;;;12.00;99.90;;;;;;7286202;32;20185;-56
2023/03/21 13:14:03;;;;;;;9.23;4.25;;;12.00;99.90;;;;;;7283117;32;20119;-56
2023/03/21 13:18:32;;;;;;;8.65;4.07;;;11.90;99.90;;;;;;7289279;32;20120;-56
2023/03/21 13:22:34;;;;;;;7.53;3.85;;;11.90;99.90;;;;;;7279413;32;20818;-56
2023/03/21 13:26:43;;;;;;;9.52;3.70;;;11.70;99.90;;;;;;7279614;32;20116;-57
2023/03/21 13:30:47;;;;;;;7.40;3.75;;;11.80;99.90;;;;;;7282369;32;20104;-57
2023/03/21 13:34:54;;;;;;;9.75;3.37;;;11.70;99.90;;;;;;7278796;32;20186;-56
2023/03/21 13:39:07;;;;;;;;;;;12.10;99.90;;;;;;7281437;32;20134;-57
2023/03/21 13:43:32;;;;;;;7.18;3.62;;;12.20;99.90;;;;;;7281788;32;20011;-57
2023/03/21 13:47:55;;;;;;;9.15;2.87;;;12.60;99.90;;;;;;7284444;32;20099;-57
2023/03/21 13:51:59;;;;;;;6.65;3.15;;;12.70;99.90;;;;;;7286718;32;20120;-56
2023/03/21 13:56:29;;;;;;;9.02;3.80;;;12.60;99.90;;;;;;7268008;32;20163;-57
2023/03/21 14:00:38;;;;;;;6.62;3.37;;;12.50;99.90;;;;;;7274295;32;20525;-56
2023/03/21 14:04:41;;;;;;;4.40;2.78;;;12.50;99.90;;;;;;7286349;32;20266;-56
2023/03/21 14:09:02;;;;;;;7.97;3.12;;;12.40;99.90;;;;;;7288694;32;20141;-56
2023/03/21 14:13:06;;;;;;;7.32;3.58;;;12.10;99.90;;;;;;7275164;32;20116;-57
2023/03/21 14:17:25;;;;;;;6.82;3.22;;;12.40;99.90;;;;;;7272180;32;20596;-57
2023/03/21 14:21:35;;;;;;;8.07;3.53;;;12.40;99.90;;;;;;7281974;32;20124;-57
2023/03/21 14:25:38;;;;;;;7.22;2.95;;;12.50;99.90;;;;;;7286052;32;20157;-59
2023/03/21 14:29:52;;;;;;;7.07;2.97;;;12.50;99.90;;;;;;7287338;32;20118;-57
2023/03/21 14:33:57;;;;;;;6.05;2.78;;;12.90;99.90;;;;;;7291821;32;20104;-57
2023/03/21 14:38:07;;;;;;;6.47;2.90;;;12.90;99.90;;;;;;7290577;32;20107;-57
2023/03/21 14:42:14;;;;;;;7.87;3.17;;;12.80;99.90;;;;;;7284628;32;20254;-57
2023/03/21 14:46:19;;;;;;;7.87;3.30;;;12.50;99.90;;;;;;7289018;32;21247;-57
2023/03/21 14:50:39;;;;;;;5.03;3.28;;;12.50;99.90;;;;;;7284967;32;20134;-58
2023/03/21 14:54:45;;;;;;;7.82;3.42;;;12.50;99.90;;;;;;7284727;32;20112;-57
2023/03/21 14:58:47;;;;;;;8.35;3.78;;;12.60;99.90;;;;;;7288631;32;20119;-57
2023/03/21 15:02:50;;;;;;;7.37;3.15;;;12.60;99.90;;;;;;7284736;32;20537;-57
2023/03/21 15:07:00;;;;;;;7.60;3.35;;;12.50;99.90;;;;;;7283239;32;20276;-57
2023/03/21 15:11:05;;;;;;;6.47;3.50;;;12.60;99.90;;;;;;7276890;32;20553;-57
2023/03/21 15:15:13;;;;;;;6.50;3.45;;;12.80;99.90;;;;;;7278034;32;20196;-57
2023/03/21 15:19:18;;;;;;;6.87;3.17;;;13.00;99.90;;;;;;7284426;32;20221;-57
2023/03/21 15:23:25;;;;;;;10.02;3.42;;;13.10;99.90;;;;;;7274064;32;20116;-57
2023/03/21 15:27:28;;;;;;;;;;;12.90;99.90;;;;;;7274508;32;20202;-57
2023/03/21 15:31:35;;;;;;;5.43;3.10;;;12.80;99.90;;;;;;7275031;32;20675;-57
2023/03/21 15:35:39;;;;;;;7.32;3.00;;;12.70;99.90;;;;;;7274317;32;20259;-57
2023/03/21 15:39:42;;;;;;;8.75;3.53;;;12.80;99.90;;;;;;7273640;32;20197;-58
2023/03/21 15:43:46;;;;;;;7.50;3.80;;;12.80;99.90;;;;;;7276838;32;20115;-60
2023/03/21 15:47:48;;;;;;;6.22;2.97;;;13.00;99.90;;;;;;7274322;32;20219;-57
2023/03/21 15:52:01;;;;;;;5.55;3.28;;;13.20;99.90;;;;;;7282057;32;20127;-60
2023/03/21 15:56:08;;;;;;;6.53;3.12;;;13.20;99.90;;;;;;7286242;32;20119;-56
2023/03/21 16:00:18;;;;;;;6.60;3.13;;;13.00;99.90;;;;;;7274477;32;20132;-58
2023/03/21 16:04:22;;;;;;;5.70;3.15;;;12.70;99.90;;;;;;7284181;32;20223;-56
2023/03/21 16:08:27;;;;;;;8.90;3.47;;;12.50;99.90;;;;;;7285088;32;20192;-57
2023/03/21 16:12:29;;;;;;;5.35;3.37;;;12.30;99.90;;;;;;7285479;32;20150;-57
2023/03/21 16:16:31;;;;;;;7.72;3.28;;;12.20;99.90;;;;;;7279549;32;20566;-61
2023/03/21 16:20:43;;;;;;;7.20;3.47;;;12.20;99.90;;;;;;7280085;32;20133;-57
2023/03/21 16:24:45;;;;;;;6.30;3.50;;;12.40;99.90;;;;;;7285585;32;20162;-57
2023/03/21 16:28:48;;;;;;;6.87;3.28;;;12.40;99.90;;;;;;7278526;32;20104;-57
2023/03/21 16:32:50;;;;;;;6.22;3.40;;;12.40;99.90;;;;;;7281634;32;20116;-56
2023/03/21 16:36:52;;;;;;;9.38;3.83;;;12.40;99.90;;;;;;7280068;32;20682;-59
2023/03/21 16:40:53;;;;;;;6.72;3.12;;;12.40;99.90;;;;;;7282921;32;20120;-57
2023/03/21 16:44:55;;;;;;;7.20;3.70;;;12.40;99.90;;;;;;7282368;32;20178;-57
2023/03/21 16:48:57;;;;;;;6.12;3.53;;;12.30;99.90;;;;;;7285747;32;20208;-56
2023/03/21 16:53:00;;;;;;;7.00;3.87;;;12.20;99.90;;;;;;7274516;32;20192;-57
2023/03/21 16:57:03;;;;;;;5.37;3.45;;;12.20;99.90;;;;;;7278641;32;20551;-62
2023/03/21 17:01:05;;;;;;;7.68;3.85;;;12.20;99.90;;;;;;7285613;32;20235;-56
2023/03/21 17:05:07;;;;;;;8.25;3.78;;;12.20;99.90;;;;;;7286679;32;20428;-56
2023/03/21 17:09:11;;;;;;;7.57;3.30;;;12.10;99.90;;;;;;7293976;32;20397;-57
2023/03/21 17:13:13;;;;;;;6.28;3.70;;;12.10;99.90;;;;;;7269790;32;20242;-57
2023/03/21 17:17:16;;;;;;;6.10;3.58;;;12.10;99.90;;;;;;7290015;32;20120;-57
2023/03/21 17:21:20;;;;;;;6.57;4.00;;;12.00;99.90;;;;;;7282347;32;20285;-57
2023/03/21 17:25:22;;;;;;;6.37;3.25;;;12.10;99.90;;;;;;7281643;32;20100;-57
2023/03/21 17:29:24;;;;;;;9.48;3.83;;;11.90;99.90;;;;;;7281691;32;20112;-57
2023/03/21 17:33:26;;;;;;;6.97;3.58;;;12.00;99.90;;;;;;7274113;32;20223;-56
2023/03/21 17:37:27;;;;;;;7.12;3.42;;;12.00;99.90;;;;;;7288774;32;20187;-55
2023/03/21 17:41:29;;;;;;;6.55;3.53;;;12.00;99.90;;;;;;7292028;32;20182;-57
2023/03/21 17:45:31;;;;;;;6.45;3.40;;;11.90;99.90;;;;;;7286729;32;20191;-57
2023/03/21 17:49:33;;;;;;;8.57;4.43;;;11.80;99.90;;;;;;7290319;32;20223;-56
2023/03/21 17:53:35;;;;;;;7.90;3.05;;;11.90;99.90;;;;;;7286863;32;20190;-58
2023/03/21 17:57:37;;;;;;;9.70;4.30;;;11.90;99.90;;;;;;7293341;32;20310;-58
2023/03/21 18:01:39;;;;;;;7.40;3.67;;;11.90;99.90;;;;;;7288683;32;20130;-58
2023/03/21 18:05:41;;;;;;;8.05;4.35;;;11.90;99.90;;;;;;7283715;32;20136;-56
2023/03/21 18:09:42;;;;;;;5.93;3.90;;;11.90;99.90;;;;;;7286565;32;20202;-58
2023/03/21 18:13:45;;;;;;;7.22;3.78;;;11.90;99.90;;;;;;7278325;32;20108;-55
2023/03/21 18:17:47;;;;;;;11.30;4.55;;;11.70;99.90;;;;;;7285255;32;20439;-55
2023/03/21 18:21:49;;;;;;;9.13;4.53;;;11.70;99.90;;;;;;7282645;32;20142;-55
2023/03/21 18:25:54;;;;;;;7.10;4.05;;;11.40;99.90;;;;;;7287644;32;20099;-56
2023/03/21 18:29:57;;;;;;;7.47;4.12;;;11.40;99.90;;;;;;7280742;32;20126;-55
2023/03/21 18:34:18;;;;;;;11.73;4.12;;;11.30;99.90;;;;;;7281567;32;20112;-56
2023/03/21 18:38:20;;;;;;;10.23;5.85;;;11.10;99.90;;;;;;7278017;32;20108;-55
2023/03/21 18:42:22;;;;;;;7.75;4.93;;;11.00;99.90;;;;;;7272440;32;20179;-56
2023/03/21 18:46:24;;;;;;;7.80;5.18;;;11.00;99.90;;;;;;7275548;32;20549;-55
2023/03/21 18:50:26;;;;;;;9.82;4.55;;;11.00;99.90;;;;;;7274391;32;20104;-55
2023/03/21 18:54:28;;;;;;;8.88;4.40;;;11.20;99.90;;;;;;7278625;32;20130;-55
2023/03/21 18:58:30;;;;;;;8.43;4.28;;;11.20;99.90;;;;;;7284008;32;20283;-55
2023/03/21 19:02:32;;;;;;;8.15;4.25;;;11.20;99.90;;;;;;7276931;32;20126;-58
2023/03/21 19:06:34;;;;;;;7.85;4.80;;;11.20;99.90;;;;;;7277600;32;20221;-56
2023/03/21 19:10:36;;;;;;;7.18;4.45;;;11.30;99.90;;;;;;7279208;32;20401;-56
2023/03/21 19:14:38;;;;;;;7.22;4.78;;;11.20;99.90;;;;;;7280447;32;20107;-56
2023/03/21 19:18:40;;;;;;;9.23;3.90;;;11.20;99.90;;;;;;7278200;32;20119;-56
2023/03/21 19:22:58;;;;;;;7.85;4.18;;;11.20;99.90;;;;;;7274802;32;20218;-56
2023/03/21 19:26:59;;;;;;;8.95;4.37;;;11.20;99.90;;;;;;7280016;32;20113;-56
2023/03/21 19:31:06;;;;;;;5.80;3.78;;;11.10;99.90;;;;;;7280037;32;20139;-55
2023/03/21 19:35:08;;;;;;;8.70;4.03;;;11.00;99.90;;;;;;7277969;32;20135;-55
2023/03/21 19:39:11;;;;;;;9.18;4.62;;;11.10;99.90;;;;;;7272131;32;20930;-61
2023/03/21 19:43:15;;;;;;;7.85;4.07;;;11.10;99.90;;;;;;7284141;32;20190;-56
2023/03/21 19:47:33;;;;;;;4.47;3.55;;;11.10;99.90;;;;;;7273549;32;20556;-55
2023/03/21 19:51:35;;;;;;;6.05;4.10;;;11.20;99.90;;;;;;7280997;32;20753;-56
2023/03/21 19:55:38;;;;;;;6.28;4.43;;;11.10;99.90;;;;;;7275256;32;20100;-56
2023/03/21 19:59:40;;;;;;;10.50;4.95;;;11.30;99.90;;;;;;7273600;32;20160;-56
2023/03/21 20:03:46;;;;;;;8.10;4.50;;;11.30;99.90;;;;;;7276498;32;20745;-55
2023/03/21 20:07:47;;;;;;;8.57;4.45;;;11.30;99.90;;;;;;7277430;32;20108;-56
2023/03/21 20:11:51;;;;;;;8.18;5.07;;;11.30;99.90;;;;;;7275426;32;20191;-56
2023/03/21 20:15:53;;;;;;;9.70;4.80;;;11.30;99.90;;;;;;7272035;32;20620;-54
2023/03/21 20:19:58;;;;;;;9.02;4.68;;;11.30;99.90;;;;;;7273917;32;20534;-54
2023/03/21 20:24:02;;;;;;;7.12;5.12;;;11.20;99.90;;;;;;7273575;32;20126;-54
2023/03/21 20:28:04;;;;;;;10.15;4.62;;;11.10;99.90;;;;;;7278527;32;20397;-54
2023/03/21 20:32:26;;;;;;;10.27;4.93;;;11.00;99.90;;;;;;7276320;32;20135;-55
2023/03/21 20:36:27;;;;;;;11.93;5.30;;;10.80;99.90;;;;;;7278455;32;20451;-56
2023/03/21 20:40:40;;;;;;;8.63;5.03;;;10.70;99.90;;;;;;7276521;32;20116;-56
2023/03/21 20:44:42;;;;;;;7.22;5.03;;;10.60;99.90;;;;;;7280228;32;20297;-55
2023/03/21 20:49:01;;;;;;;8.48;3.60;;;10.50;99.90;;;;;;7283533;32;20589;-56
2023/03/21 20:53:03;;;;;;;8.20;3.37;;;10.60;99.90;;;;;;7283774;32;20135;-55
2023/03/21 20:57:08;;;;;;;7.10;3.28;;;10.50;99.90;;;;;;7278053;32;20218;-55
2023/03/21 21:01:14;;;;;;;5.62;3.17;;;10.40;99.90;;;;;;7280292;32;20201;-55
2023/03/21 21:05:18;;;;;;;6.03;3.03;;;10.40;99.90;;;;;;7278397;32;20268;-56
2023/03/21 21:09:30;;;;;;;5.78;3.35;;;10.30;99.90;;;;;;7280483;32;20203;-55
2023/03/21 21:13:32;;;;;;;7.32;2.90;;;10.40;99.90;;;;;;7285963;32;20099;-55
2023/03/21 21:17:34;;;;;;;6.90;2.67;;;10.50;99.90;;;;;;7279645;32;20274;-55
2023/03/21 21:21:56;;;;;;;4.68;2.60;;;10.70;99.90;;;;;;7282654;32;20105;-55